sensor_id;sensor_type;location;lat;lon;timestamp;P1;durP1;ratioP1;P2;durP2;ratioP2
1957;SDS011;979;51.076;13.748;2023-04-03T00:01:55;17.63;;;16.87;;
1957;SDS011;979;51.076;13.748;2023-04-03T00:04:26;17.77;;;17.17;;
1957;SDS011;979;51.076;13.748;2023-04-03T00:06:57;18.60;;;17.53;;
1957;SDS011;979;51.076;13.748;2023-04-03T00:09:25;18.40;;;17.70;;
1957;SDS011;979;51.076;13.748;2023-04-03T00:11:54;18.00;;;17.20;;
1957;SDS011;979;51.076;13.748;2023-04-03T00:14:23;18.40;;;17.60;;
1957;SDS011;979;51.076;13.748;2023-04-03T00:16:52;18.37;;;17.60;;
1957;SDS011;979;51.076;13.748;2023-04-03T00:19:20;19.13;;;18.43;;
1957;SDS011;979;51.076;13.748;2023-04-03T00:21:49;18.40;;;17.60;;
1957;SDS011;979;51.076;13.748;2023-04-03T00:24:17;18.37;;;17.67;;
1957;SDS011;979;51.076;13.748;2023-04-03T00:26:46;18.60;;;17.80;;
1957;SDS011;979;51.076;13.748;2023-04-03T00:29:14;18.53;;;17.63;;
1957;SDS011;979;51.076;13.748;2023-04-03T00:31:44;18.07;;;17.27;;
1957;SDS011;979;51.076;13.748;2023-04-03T00:34:12;19.03;;;18.13;;
1957;SDS011;979;51.076;13.748;2023-04-03T00:36:41;18.87;;;17.87;;
1957;SDS011;979;51.076;13.748;2023-04-03T00:39:09;18.37;;;17.47;;
1957;SDS011;979;51.076;13.748;2023-04-03T00:41:38;18.20;;;17.40;;
1957;SDS011;979;51.076;13.748;2023-04-03T00:47:10;18.30;;;17.60;;
1957;SDS011;979;51.076;13.748;2023-04-03T00:49:40;18.57;;;17.80;;
1957;SDS011;979;51.076;13.748;2023-04-03T00:52:10;18.50;;;17.60;;
1957;SDS011;979;51.076;13.748;2023-04-03T00:54:43;18.70;;;17.90;;
1957;SDS011;979;51.076;13.748;2023-04-03T00:57:14;18.20;;;17.50;;
1957;SDS011;979;51.076;13.748;2023-04-03T00:59:44;17.00;;;16.50;;
1957;SDS011;979;51.076;13.748;2023-04-03T01:02:17;17.90;;;17.20;;
1957;SDS011;979;51.076;13.748;2023-04-03T01:04:46;17.53;;;16.90;;
1957;SDS011;979;51.076;13.748;2023-04-03T01:07:15;18.40;;;17.40;;
1957;SDS011;979;51.076;13.748;2023-04-03T01:09:45;17.60;;;16.80;;
1957;SDS011;979;51.076;13.748;2023-04-03T01:12:18;18.13;;;17.33;;
1957;SDS011;979;51.076;13.748;2023-04-03T01:14:51;19.00;;;17.90;;
1957;SDS011;979;51.076;13.748;2023-04-03T01:17:30;18.37;;;17.30;;
1957;SDS011;979;51.076;13.748;2023-04-03T01:20:13;19.17;;;18.27;;
1957;SDS011;979;51.076;13.748;2023-04-03T01:23:23;17.90;;;17.30;;
1957;SDS011;979;51.076;13.748;2023-04-03T01:25:58;18.20;;;17.60;;
1957;SDS011;979;51.076;13.748;2023-04-03T01:28:27;18.90;;;17.87;;
1957;SDS011;979;51.076;13.748;2023-04-03T01:30:59;18.10;;;17.50;;
1957;SDS011;979;51.076;13.748;2023-04-03T01:33:39;18.10;;;17.40;;
1957;SDS011;979;51.076;13.748;2023-04-03T01:36:07;18.43;;;17.40;;
1957;SDS011;979;51.076;13.748;2023-04-03T01:38:36;17.90;;;17.27;;
1957;SDS011;979;51.076;13.748;2023-04-03T01:41:05;17.17;;;16.57;;
1957;SDS011;979;51.076;13.748;2023-04-03T01:43:34;17.70;;;17.10;;
1957;SDS011;979;51.076;13.748;2023-04-03T01:46:02;18.47;;;17.63;;
1957;SDS011;979;51.076;13.748;2023-04-03T01:51:07;18.40;;;17.60;;
1957;SDS011;979;51.076;13.748;2023-04-03T01:53:35;17.67;;;16.97;;
1957;SDS011;979;51.076;13.748;2023-04-03T01:56:04;17.70;;;17.00;;
1957;SDS011;979;51.076;13.748;2023-04-03T01:58:34;18.80;;;17.80;;
1957;SDS011;979;51.076;13.748;2023-04-03T02:01:03;17.70;;;16.90;;
1957;SDS011;979;51.076;13.748;2023-04-03T02:03:32;16.90;;;16.40;;
1957;SDS011;979;51.076;13.748;2023-04-03T02:06:00;16.67;;;16.17;;
1957;SDS011;979;51.076;13.748;2023-04-03T02:08:31;16.80;;;16.30;;
1957;SDS011;979;51.076;13.748;2023-04-03T02:11:01;17.50;;;17.00;;
1957;SDS011;979;51.076;13.748;2023-04-03T02:13:30;16.80;;;16.30;;
1957;SDS011;979;51.076;13.748;2023-04-03T02:15:59;16.90;;;16.40;;
1957;SDS011;979;51.076;13.748;2023-04-03T02:18:33;17.20;;;16.70;;
1957;SDS011;979;51.076;13.748;2023-04-03T02:21:03;16.37;;;15.97;;
1957;SDS011;979;51.076;13.748;2023-04-03T02:23:31;16.43;;;16.03;;
1957;SDS011;979;51.076;13.748;2023-04-03T02:26:03;17.70;;;17.20;;
1957;SDS011;979;51.076;13.748;2023-04-03T02:28:38;17.47;;;16.97;;
1957;SDS011;979;51.076;13.748;2023-04-03T02:31:07;17.20;;;16.80;;
1957;SDS011;979;51.076;13.748;2023-04-03T02:33:39;16.70;;;16.30;;
1957;SDS011;979;51.076;13.748;2023-04-03T02:36:11;16.50;;;16.10;;
1957;SDS011;979;51.076;13.748;2023-04-03T02:38:43;16.57;;;16.17;;
1957;SDS011;979;51.076;13.748;2023-04-03T02:41:12;15.30;;;15.00;;
1957;SDS011;979;51.076;13.748;2023-04-03T02:43:41;17.27;;;16.87;;
1957;SDS011;979;51.076;13.748;2023-04-03T02:46:09;17.10;;;16.70;;
1957;SDS011;979;51.076;13.748;2023-04-03T02:48:37;16.30;;;15.90;;
1957;SDS011;979;51.076;13.748;2023-04-03T02:51:06;14.80;;;14.50;;
1957;SDS011;979;51.076;13.748;2023-04-03T02:53:40;14.80;;;14.50;;
1957;SDS011;979;51.076;13.748;2023-04-03T02:56:14;15.80;;;15.43;;
1957;SDS011;979;51.076;13.748;2023-04-03T02:58:45;16.43;;;16.03;;
1957;SDS011;979;51.076;13.748;2023-04-03T03:01:17;16.70;;;16.30;;
1957;SDS011;979;51.076;13.748;2023-04-03T03:03:46;16.40;;;16.00;;
1957;SDS011;979;51.076;13.748;2023-04-03T03:06:15;16.60;;;16.20;;
1957;SDS011;979;51.076;13.748;2023-04-03T03:08:48;16.90;;;16.50;;
1957;SDS011;979;51.076;13.748;2023-04-03T03:11:16;16.43;;;16.07;;
1957;SDS011;979;51.076;13.748;2023-04-03T03:13:44;16.77;;;16.37;;
1957;SDS011;979;51.076;13.748;2023-04-03T03:16:12;16.00;;;15.60;;
1957;SDS011;979;51.076;13.748;2023-04-03T03:18:43;16.13;;;15.73;;
1957;SDS011;979;51.076;13.748;2023-04-03T03:21:11;16.43;;;16.00;;
1957;SDS011;979;51.076;13.748;2023-04-03T03:23:40;15.30;;;14.90;;
1957;SDS011;979;51.076;13.748;2023-04-03T03:26:10;15.50;;;15.10;;
1957;SDS011;979;51.076;13.748;2023-04-03T03:28:38;16.13;;;15.73;;
1957;SDS011;979;51.076;13.748;2023-04-03T03:31:08;15.40;;;14.90;;
1957;SDS011;979;51.076;13.748;2023-04-03T03:33:38;15.33;;;14.93;;
1957;SDS011;979;51.076;13.748;2023-04-03T03:36:08;16.10;;;15.70;;
1957;SDS011;979;51.076;13.748;2023-04-03T03:38:37;16.30;;;15.80;;
1957;SDS011;979;51.076;13.748;2023-04-03T03:41:05;17.00;;;16.50;;
1957;SDS011;979;51.076;13.748;2023-04-03T03:43:36;14.80;;;14.40;;
1957;SDS011;979;51.076;13.748;2023-04-03T03:46:06;15.70;;;15.30;;
1957;SDS011;979;51.076;13.748;2023-04-03T03:48:34;16.13;;;15.73;;
1957;SDS011;979;51.076;13.748;2023-04-03T03:51:04;16.40;;;15.90;;
1957;SDS011;979;51.076;13.748;2023-04-03T03:53:35;16.33;;;15.93;;
1957;SDS011;979;51.076;13.748;2023-04-03T03:56:07;16.43;;;16.00;;
1957;SDS011;979;51.076;13.748;2023-04-03T03:58:39;16.80;;;16.30;;
1957;SDS011;979;51.076;13.748;2023-04-03T04:01:08;15.30;;;14.90;;
1957;SDS011;979;51.076;13.748;2023-04-03T04:03:44;15.20;;;14.80;;
1957;SDS011;979;51.076;13.748;2023-04-03T04:06:17;16.10;;;15.70;;
1957;SDS011;979;51.076;13.748;2023-04-03T04:08:46;15.83;;;15.43;;
1957;SDS011;979;51.076;13.748;2023-04-03T04:11:14;16.40;;;15.90;;
1957;SDS011;979;51.076;13.748;2023-04-03T04:13:47;15.20;;;14.80;;
1957;SDS011;979;51.076;13.748;2023-04-03T04:16:18;14.77;;;14.37;;
1957;SDS011;979;51.076;13.748;2023-04-03T04:18:46;15.83;;;15.43;;
1957;SDS011;979;51.076;13.748;2023-04-03T04:21:14;15.90;;;15.50;;
1957;SDS011;979;51.076;13.748;2023-04-03T04:23:43;15.90;;;15.50;;
1957;SDS011;979;51.076;13.748;2023-04-03T04:26:12;15.50;;;15.10;;
1957;SDS011;979;51.076;13.748;2023-04-03T04:28:41;14.90;;;14.60;;
1957;SDS011;979;51.076;13.748;2023-04-03T04:31:10;15.30;;;14.90;;
1957;SDS011;979;51.076;13.748;2023-04-03T04:33:39;14.73;;;14.43;;
1957;SDS011;979;51.076;13.748;2023-04-03T04:36:10;14.77;;;14.47;;
1957;SDS011;979;51.076;13.748;2023-04-03T04:38:44;15.30;;;14.90;;
1957;SDS011;979;51.076;13.748;2023-04-03T04:41:15;17.30;;;16.30;;
1957;SDS011;979;51.076;13.748;2023-04-03T04:43:44;15.70;;;15.30;;
1957;SDS011;979;51.076;13.748;2023-04-03T04:46:13;15.97;;;15.57;;
1957;SDS011;979;51.076;13.748;2023-04-03T04:48:47;15.50;;;15.10;;
1957;SDS011;979;51.076;13.748;2023-04-03T04:51:18;15.33;;;14.93;;
1957;SDS011;979;51.076;13.748;2023-04-03T04:53:46;14.83;;;14.53;;
1957;SDS011;979;51.076;13.748;2023-04-03T04:56:17;15.30;;;14.90;;
1957;SDS011;979;51.076;13.748;2023-04-03T04:58:48;14.53;;;14.23;;
1957;SDS011;979;51.076;13.748;2023-04-03T05:01:20;13.70;;;13.40;;
1957;SDS011;979;51.076;13.748;2023-04-03T05:03:55;14.90;;;14.60;;
1957;SDS011;979;51.076;13.748;2023-04-03T05:06:24;14.60;;;14.30;;
1957;SDS011;979;51.076;13.748;2023-04-03T05:08:55;14.80;;;14.50;;
1957;SDS011;979;51.076;13.748;2023-04-03T05:11:24;14.80;;;14.50;;
1957;SDS011;979;51.076;13.748;2023-04-03T05:13:52;16.17;;;15.83;;
1957;SDS011;979;51.076;13.748;2023-04-03T05:16:24;14.37;;;14.07;;
1957;SDS011;979;51.076;13.748;2023-04-03T05:18:54;14.50;;;14.20;;
1957;SDS011;979;51.076;13.748;2023-04-03T05:21:22;14.40;;;14.10;;
1957;SDS011;979;51.076;13.748;2023-04-03T05:23:53;15.50;;;15.10;;
1957;SDS011;979;51.076;13.748;2023-04-03T05:26:21;15.57;;;15.17;;
1957;SDS011;979;51.076;13.748;2023-04-03T05:28:50;15.50;;;15.10;;
1957;SDS011;979;51.076;13.748;2023-04-03T05:31:19;15.10;;;14.80;;
1957;SDS011;979;51.076;13.748;2023-04-03T05:33:49;15.47;;;15.07;;
1957;SDS011;979;51.076;13.748;2023-04-03T05:36:20;13.90;;;13.60;;
1957;SDS011;979;51.076;13.748;2023-04-03T05:38:54;15.60;;;15.20;;
1957;SDS011;979;51.076;13.748;2023-04-03T05:41:26;15.13;;;14.73;;
1957;SDS011;979;51.076;13.748;2023-04-03T05:43:54;14.33;;;14.03;;
1957;SDS011;979;51.076;13.748;2023-04-03T05:46:24;14.43;;;14.13;;
1957;SDS011;979;51.076;13.748;2023-04-03T05:48:57;14.73;;;14.43;;
1957;SDS011;979;51.076;13.748;2023-04-03T05:51:30;14.80;;;14.50;;
1957;SDS011;979;51.076;13.748;2023-04-03T05:54:09;14.33;;;14.03;;
1957;SDS011;979;51.076;13.748;2023-04-03T05:56:46;25.30;;;15.63;;
1957;SDS011;979;51.076;13.748;2023-04-03T05:59:14;14.90;;;14.60;;
1957;SDS011;979;51.076;13.748;2023-04-03T06:01:43;14.90;;;14.50;;
1957;SDS011;979;51.076;13.748;2023-04-03T06:04:13;15.40;;;15.00;;
1957;SDS011;979;51.076;13.748;2023-04-03T06:06:43;16.23;;;15.83;;
1957;SDS011;979;51.076;13.748;2023-04-03T06:09:15;15.40;;;15.00;;
1957;SDS011;979;51.076;13.748;2023-04-03T06:11:43;15.47;;;15.07;;
1957;SDS011;979;51.076;13.748;2023-04-03T06:14:12;15.43;;;15.03;;
1957;SDS011;979;51.076;13.748;2023-04-03T06:16:41;15.10;;;14.70;;
1957;SDS011;979;51.076;13.748;2023-04-03T06:19:10;15.27;;;14.87;;
1957;SDS011;979;51.076;13.748;2023-04-03T06:21:45;14.67;;;14.37;;
1957;SDS011;979;51.076;13.748;2023-04-03T06:24:15;15.80;;;15.40;;
1957;SDS011;979;51.076;13.748;2023-04-03T06:26:44;15.90;;;15.50;;
1957;SDS011;979;51.076;13.748;2023-04-03T06:29:12;15.50;;;15.10;;
1957;SDS011;979;51.076;13.748;2023-04-03T06:31:43;16.40;;;15.90;;
1957;SDS011;979;51.076;13.748;2023-04-03T06:34:14;16.60;;;16.20;;
1957;SDS011;979;51.076;13.748;2023-04-03T06:36:45;17.10;;;16.60;;
1957;SDS011;979;51.076;13.748;2023-04-03T06:39:16;15.80;;;15.40;;
1957;SDS011;979;51.076;13.748;2023-04-03T06:41:49;16.13;;;15.73;;
1957;SDS011;979;51.076;13.748;2023-04-03T06:44:25;16.30;;;15.90;;
1957;SDS011;979;51.076;13.748;2023-04-03T06:56:01;17.60;;;16.83;;
1957;SDS011;979;51.076;13.748;2023-04-03T06:58:37;16.77;;;16.20;;
1957;SDS011;979;51.076;13.748;2023-04-03T07:01:10;18.20;;;17.50;;
1957;SDS011;979;51.076;13.748;2023-04-03T07:03:51;17.40;;;16.80;;
1957;SDS011;979;51.076;13.748;2023-04-03T07:06:38;16.67;;;15.63;;
1957;SDS011;979;51.076;13.748;2023-04-03T07:09:43;15.60;;;15.20;;
1957;SDS011;979;51.076;13.748;2023-04-03T07:12:52;19.27;;;18.00;;
1957;SDS011;979;51.076;13.748;2023-04-03T07:15:25;18.27;;;17.40;;
1957;SDS011;979;51.076;13.748;2023-04-03T07:18:22;16.93;;;16.43;;
1957;SDS011;979;51.076;13.748;2023-04-03T07:21:11;17.23;;;16.40;;
1957;SDS011;979;51.076;13.748;2023-04-03T07:24:04;17.00;;;16.43;;
1957;SDS011;979;51.076;13.748;2023-04-03T07:27:02;16.80;;;16.10;;
1957;SDS011;979;51.076;13.748;2023-04-03T08:08:28;17.13;;;16.63;;
1957;SDS011;979;51.076;13.748;2023-04-03T08:11:22;18.17;;;17.37;;
1957;SDS011;979;51.076;13.748;2023-04-03T08:14:21;18.17;;;17.47;;
1957;SDS011;979;51.076;13.748;2023-04-03T08:35:39;18.10;;;17.23;;
1957;SDS011;979;51.076;13.748;2023-04-03T08:38:09;17.13;;;16.47;;
1957;SDS011;979;51.076;13.748;2023-04-03T08:40:41;18.10;;;17.20;;
1957;SDS011;979;51.076;13.748;2023-04-03T08:43:40;18.37;;;17.77;;
1957;SDS011;979;51.076;13.748;2023-04-03T08:46:56;17.07;;;16.37;;
1957;SDS011;979;51.076;13.748;2023-04-03T08:50:23;17.40;;;16.60;;
1957;SDS011;979;51.076;13.748;2023-04-03T09:07:23;19.10;;;17.80;;
1957;SDS011;979;51.076;13.748;2023-04-03T09:10:34;18.60;;;17.73;;
1957;SDS011;979;51.076;13.748;2023-04-03T09:13:52;18.93;;;18.10;;
1957;SDS011;979;51.076;13.748;2023-04-03T09:17:03;17.07;;;16.43;;
1957;SDS011;979;51.076;13.748;2023-04-03T09:24:32;17.43;;;16.87;;
1957;SDS011;979;51.076;13.748;2023-04-03T09:28:06;18.80;;;17.90;;
1957;SDS011;979;51.076;13.748;2023-04-03T09:31:52;17.47;;;16.70;;
1957;SDS011;979;51.076;13.748;2023-04-03T09:35:21;17.67;;;16.97;;
1957;SDS011;979;51.076;13.748;2023-04-03T09:38:38;16.97;;;16.17;;
1957;SDS011;979;51.076;13.748;2023-04-03T09:49:09;16.67;;;15.97;;
1957;SDS011;979;51.076;13.748;2023-04-03T11:14:33;17.90;;;17.20;;
1957;SDS011;979;51.076;13.748;2023-04-03T11:17:45;17.60;;;17.00;;
1957;SDS011;979;51.076;13.748;2023-04-03T11:21:00;18.00;;;17.40;;
1957;SDS011;979;51.076;13.748;2023-04-03T11:24:11;18.13;;;17.63;;
1957;SDS011;979;51.076;13.748;2023-04-03T11:27:19;18.17;;;17.47;;
1957;SDS011;979;51.076;13.748;2023-04-03T11:30:22;18.33;;;17.83;;
1957;SDS011;979;51.076;13.748;2023-04-03T11:33:40;19.10;;;18.30;;
1957;SDS011;979;51.076;13.748;2023-04-03T11:37:12;18.03;;;17.40;;
1957;SDS011;979;51.076;13.748;2023-04-03T11:39:56;18.30;;;17.63;;
1957;SDS011;979;51.076;13.748;2023-04-03T14:30:25;16.57;;;15.87;;
1957;SDS011;979;51.076;13.748;2023-04-03T14:33:19;17.83;;;17.13;;
1957;SDS011;979;51.076;13.748;2023-04-03T15:22:35;15.40;;;14.90;;
1957;SDS011;979;51.076;13.748;2023-04-03T15:25:06;16.67;;;15.97;;
1957;SDS011;979;51.076;13.748;2023-04-03T15:27:38;15.40;;;14.80;;
1957;SDS011;979;51.076;13.748;2023-04-03T15:30:08;16.27;;;15.67;;
1957;SDS011;979;51.076;13.748;2023-04-03T15:32:41;17.20;;;16.60;;
1957;SDS011;979;51.076;13.748;2023-04-03T15:35:10;15.27;;;14.80;;
1957;SDS011;979;51.076;13.748;2023-04-03T15:37:40;15.90;;;15.40;;
1957;SDS011;979;51.076;13.748;2023-04-03T15:40:09;16.10;;;15.50;;
1957;SDS011;979;51.076;13.748;2023-04-03T15:42:38;16.10;;;15.40;;
1957;SDS011;979;51.076;13.748;2023-04-03T15:45:08;15.90;;;15.07;;
1957;SDS011;979;51.076;13.748;2023-04-03T15:47:37;16.30;;;15.80;;
1957;SDS011;979;51.076;13.748;2023-04-03T15:50:09;17.40;;;16.70;;
1957;SDS011;979;51.076;13.748;2023-04-03T15:52:38;16.60;;;15.93;;
1957;SDS011;979;51.076;13.748;2023-04-03T15:55:08;16.60;;;16.10;;
1957;SDS011;979;51.076;13.748;2023-04-03T15:57:39;16.13;;;15.60;;
1957;SDS011;979;51.076;13.748;2023-04-03T16:00:08;15.77;;;15.33;;
1957;SDS011;979;51.076;13.748;2023-04-03T16:02:38;15.90;;;15.50;;
1957;SDS011;979;51.076;13.748;2023-04-03T16:05:10;17.13;;;16.43;;
1957;SDS011;979;51.076;13.748;2023-04-03T16:07:42;16.40;;;15.70;;
1957;SDS011;979;51.076;13.748;2023-04-03T16:10:15;16.87;;;16.10;;
1957;SDS011;979;51.076;13.748;2023-04-03T16:12:45;16.73;;;16.00;;
1957;SDS011;979;51.076;13.748;2023-04-03T16:15:14;17.67;;;16.80;;
1957;SDS011;979;51.076;13.748;2023-04-03T16:17:47;17.83;;;17.03;;
1957;SDS011;979;51.076;13.748;2023-04-03T16:20:16;17.07;;;16.47;;
1957;SDS011;979;51.076;13.748;2023-04-03T16:22:49;16.70;;;16.10;;
1957;SDS011;979;51.076;13.748;2023-04-03T16:25:21;16.20;;;15.70;;
1957;SDS011;979;51.076;13.748;2023-04-03T16:27:57;16.73;;;16.07;;
1957;SDS011;979;51.076;13.748;2023-04-03T16:30:26;15.93;;;15.33;;
1957;SDS011;979;51.076;13.748;2023-04-03T16:32:56;16.40;;;15.90;;
1957;SDS011;979;51.076;13.748;2023-04-03T16:35:30;16.67;;;15.97;;
1957;SDS011;979;51.076;13.748;2023-04-03T16:37:58;17.40;;;16.60;;
1957;SDS011;979;51.076;13.748;2023-04-03T16:40:30;17.33;;;16.53;;
1957;SDS011;979;51.076;13.748;2023-04-03T16:43:00;17.60;;;16.90;;
1957;SDS011;979;51.076;13.748;2023-04-03T16:45:30;17.50;;;16.83;;
1957;SDS011;979;51.076;13.748;2023-04-03T16:47:59;17.13;;;16.20;;
1957;SDS011;979;51.076;13.748;2023-04-03T16:50:36;18.10;;;17.10;;
1957;SDS011;979;51.076;13.748;2023-04-03T17:00:28;17.50;;;16.60;;
1957;SDS011;979;51.076;13.748;2023-04-03T17:02:59;17.77;;;16.97;;
1957;SDS011;979;51.076;13.748;2023-04-03T17:05:33;15.80;;;15.30;;
1957;SDS011;979;51.076;13.748;2023-04-03T17:08:02;17.50;;;16.60;;
1957;SDS011;979;51.076;13.748;2023-04-03T17:10:31;18.07;;;17.20;;
1957;SDS011;979;51.076;13.748;2023-04-03T17:13:18;17.30;;;16.70;;
1957;SDS011;979;51.076;13.748;2023-04-03T17:15:47;16.57;;;15.97;;
1957;SDS011;979;51.076;13.748;2023-04-03T17:18:16;17.37;;;16.67;;
1957;SDS011;979;51.076;13.748;2023-04-03T17:20:44;18.13;;;17.23;;
1957;SDS011;979;51.076;13.748;2023-04-03T17:23:12;16.57;;;16.07;;
1957;SDS011;979;51.076;13.748;2023-04-03T17:25:40;16.93;;;16.23;;
1957;SDS011;979;51.076;13.748;2023-04-03T17:28:09;17.23;;;16.33;;
1957;SDS011;979;51.076;13.748;2023-04-03T17:30:37;16.37;;;15.57;;
1957;SDS011;979;51.076;13.748;2023-04-03T17:33:07;17.07;;;16.20;;
1957;SDS011;979;51.076;13.748;2023-04-03T17:35:35;17.30;;;16.67;;
1957;SDS011;979;51.076;13.748;2023-04-03T17:38:04;17.40;;;16.50;;
1957;SDS011;979;51.076;13.748;2023-04-03T17:40:32;17.80;;;17.10;;
1957;SDS011;979;51.076;13.748;2023-04-03T17:43:01;18.67;;;17.80;;
1957;SDS011;979;51.076;13.748;2023-04-03T17:45:29;19.60;;;18.70;;
1957;SDS011;979;51.076;13.748;2023-04-03T17:47:58;18.33;;;17.63;;
1957;SDS011;979;51.076;13.748;2023-04-03T17:50:28;16.80;;;16.10;;
1957;SDS011;979;51.076;13.748;2023-04-03T17:52:57;16.50;;;15.87;;
1957;SDS011;979;51.076;13.748;2023-04-03T17:55:25;16.37;;;15.87;;
1957;SDS011;979;51.076;13.748;2023-04-03T17:57:53;16.70;;;16.20;;
1957;SDS011;979;51.076;13.748;2023-04-03T18:00:26;16.77;;;16.17;;
1957;SDS011;979;51.076;13.748;2023-04-03T18:02:54;17.30;;;16.70;;
1957;SDS011;979;51.076;13.748;2023-04-03T18:05:25;15.90;;;15.50;;
1957;SDS011;979;51.076;13.748;2023-04-03T18:08:02;16.10;;;15.50;;
1957;SDS011;979;51.076;13.748;2023-04-03T18:10:31;15.67;;;15.20;;
1957;SDS011;979;51.076;13.748;2023-04-03T18:13:04;16.83;;;16.17;;
1957;SDS011;979;51.076;13.748;2023-04-03T18:15:35;17.17;;;16.63;;
1957;SDS011;979;51.076;13.748;2023-04-03T18:18:11;17.03;;;16.23;;
1957;SDS011;979;51.076;13.748;2023-04-03T18:20:43;16.43;;;15.90;;
1957;SDS011;979;51.076;13.748;2023-04-03T18:23:11;17.40;;;16.70;;
1957;SDS011;979;51.076;13.748;2023-04-03T18:25:40;16.70;;;16.00;;
1957;SDS011;979;51.076;13.748;2023-04-03T18:28:08;16.03;;;15.63;;
1957;SDS011;979;51.076;13.748;2023-04-03T18:30:37;16.10;;;15.40;;
1957;SDS011;979;51.076;13.748;2023-04-03T18:33:05;17.40;;;16.70;;
1957;SDS011;979;51.076;13.748;2023-04-03T18:35:34;16.03;;;15.53;;
1957;SDS011;979;51.076;13.748;2023-04-03T18:38:11;16.77;;;16.27;;
1957;SDS011;979;51.076;13.748;2023-04-03T18:40:45;16.70;;;16.10;;
1957;SDS011;979;51.076;13.748;2023-04-03T18:43:15;17.57;;;16.90;;
1957;SDS011;979;51.076;13.748;2023-04-03T18:45:44;16.93;;;16.33;;
1957;SDS011;979;51.076;13.748;2023-04-03T18:48:12;17.93;;;16.33;;
1957;SDS011;979;51.076;13.748;2023-04-03T18:50:44;17.40;;;16.47;;
1957;SDS011;979;51.076;13.748;2023-04-03T18:53:17;17.13;;;16.53;;
1957;SDS011;979;51.076;13.748;2023-04-03T18:55:46;17.60;;;16.90;;
1957;SDS011;979;51.076;13.748;2023-04-03T18:58:14;16.73;;;15.67;;
1957;SDS011;979;51.076;13.748;2023-04-03T19:00:45;16.50;;;15.80;;
1957;SDS011;979;51.076;13.748;2023-04-03T19:03:14;16.40;;;15.80;;
1957;SDS011;979;51.076;13.748;2023-04-03T19:05:43;17.07;;;16.37;;
1957;SDS011;979;51.076;13.748;2023-04-03T19:08:12;16.80;;;16.00;;
1957;SDS011;979;51.076;13.748;2023-04-03T19:10:42;17.50;;;16.57;;
1957;SDS011;979;51.076;13.748;2023-04-03T19:13:11;17.37;;;16.60;;
1957;SDS011;979;51.076;13.748;2023-04-03T19:15:39;17.53;;;16.83;;
1957;SDS011;979;51.076;13.748;2023-04-03T19:18:08;17.40;;;16.80;;
1957;SDS011;979;51.076;13.748;2023-04-03T19:20:36;18.23;;;17.10;;
1957;SDS011;979;51.076;13.748;2023-04-03T19:23:05;16.53;;;15.93;;
1957;SDS011;979;51.076;13.748;2023-04-03T19:25:34;17.43;;;16.33;;
1957;SDS011;979;51.076;13.748;2023-04-03T19:28:04;16.97;;;16.10;;
1957;SDS011;979;51.076;13.748;2023-04-03T19:30:33;16.57;;;15.57;;
1957;SDS011;979;51.076;13.748;2023-04-03T19:33:04;18.17;;;17.27;;
1957;SDS011;979;51.076;13.748;2023-04-03T19:35:33;17.27;;;16.47;;
1957;SDS011;979;51.076;13.748;2023-04-03T19:38:02;18.00;;;16.57;;
1957;SDS011;979;51.076;13.748;2023-04-03T19:40:30;17.67;;;16.80;;
1957;SDS011;979;51.076;13.748;2023-04-03T19:43:04;17.67;;;16.90;;
1957;SDS011;979;51.076;13.748;2023-04-03T19:45:33;18.97;;;17.97;;
1957;SDS011;979;51.076;13.748;2023-04-03T19:48:02;17.63;;;16.83;;
1957;SDS011;979;51.076;13.748;2023-04-03T19:50:35;17.63;;;17.03;;
1957;SDS011;979;51.076;13.748;2023-04-03T19:53:04;17.70;;;16.80;;
1957;SDS011;979;51.076;13.748;2023-04-03T19:55:35;18.40;;;17.60;;
1957;SDS011;979;51.076;13.748;2023-04-03T19:58:06;17.83;;;16.87;;
1957;SDS011;979;51.076;13.748;2023-04-03T20:00:34;17.67;;;16.87;;
1957;SDS011;979;51.076;13.748;2023-04-03T20:03:03;17.27;;;16.67;;
1957;SDS011;979;51.076;13.748;2023-04-03T20:05:33;15.87;;;15.17;;
1957;SDS011;979;51.076;13.748;2023-04-03T20:08:02;16.53;;;15.93;;
1957;SDS011;979;51.076;13.748;2023-04-03T20:10:30;17.33;;;16.60;;
1957;SDS011;979;51.076;13.748;2023-04-03T20:13:03;17.43;;;16.83;;
1957;SDS011;979;51.076;13.748;2023-04-03T20:15:36;16.93;;;16.27;;
1957;SDS011;979;51.076;13.748;2023-04-03T20:18:06;17.10;;;16.50;;
1957;SDS011;979;51.076;13.748;2023-04-03T20:20:35;18.53;;;17.77;;
1957;SDS011;979;51.076;13.748;2023-04-03T20:23:07;17.47;;;16.67;;
1957;SDS011;979;51.076;13.748;2023-04-03T20:25:42;16.57;;;15.97;;
1957;SDS011;979;51.076;13.748;2023-04-03T20:28:27;17.07;;;16.47;;
1957;SDS011;979;51.076;13.748;2023-04-03T20:30:56;18.10;;;17.30;;
1957;SDS011;979;51.076;13.748;2023-04-03T20:33:29;17.73;;;17.13;;
1957;SDS011;979;51.076;13.748;2023-04-03T20:35:58;17.17;;;16.50;;
1957;SDS011;979;51.076;13.748;2023-04-03T20:38:27;16.53;;;15.93;;
1957;SDS011;979;51.076;13.748;2023-04-03T20:40:55;16.30;;;15.53;;
1957;SDS011;979;51.076;13.748;2023-04-03T20:43:23;18.00;;;17.00;;
1957;SDS011;979;51.076;13.748;2023-04-03T20:45:55;17.63;;;16.83;;
1957;SDS011;979;51.076;13.748;2023-04-03T20:48:26;18.10;;;17.30;;
1957;SDS011;979;51.076;13.748;2023-04-03T20:50:55;15.73;;;15.23;;
1957;SDS011;979;51.076;13.748;2023-04-03T20:53:23;18.43;;;17.73;;
1957;SDS011;979;51.076;13.748;2023-04-03T20:55:55;18.80;;;17.67;;
1957;SDS011;979;51.076;13.748;2023-04-03T20:58:29;17.27;;;16.60;;
1957;SDS011;979;51.076;13.748;2023-04-03T21:01:03;17.80;;;17.20;;
1957;SDS011;979;51.076;13.748;2023-04-03T21:03:40;16.57;;;16.07;;
1957;SDS011;979;51.076;13.748;2023-04-03T21:21:03;17.87;;;16.17;;
1957;SDS011;979;51.076;13.748;2023-04-03T21:23:32;16.47;;;15.87;;
1957;SDS011;979;51.076;13.748;2023-04-03T21:26:00;16.97;;;16.37;;
1957;SDS011;979;51.076;13.748;2023-04-03T21:28:28;16.67;;;16.17;;
1957;SDS011;979;51.076;13.748;2023-04-03T21:30:57;17.70;;;17.00;;
1957;SDS011;979;51.076;13.748;2023-04-03T21:33:26;17.33;;;16.70;;
1957;SDS011;979;51.076;13.748;2023-04-03T21:35:55;17.57;;;16.87;;
1957;SDS011;979;51.076;13.748;2023-04-03T21:38:25;18.80;;;17.67;;
1957;SDS011;979;51.076;13.748;2023-04-03T21:40:54;17.60;;;16.60;;
1957;SDS011;979;51.076;13.748;2023-04-03T21:43:23;18.23;;;17.10;;
1957;SDS011;979;51.076;13.748;2023-04-03T21:45:52;16.30;;;15.60;;
1957;SDS011;979;51.076;13.748;2023-04-03T21:48:23;17.33;;;16.20;;
1957;SDS011;979;51.076;13.748;2023-04-03T21:51:03;17.00;;;16.40;;
1957;SDS011;979;51.076;13.748;2023-04-03T21:53:33;17.50;;;16.80;;
1957;SDS011;979;51.076;13.748;2023-04-03T21:56:32;17.80;;;16.90;;
1957;SDS011;979;51.076;13.748;2023-04-03T21:59:19;17.43;;;16.83;;
1957;SDS011;979;51.076;13.748;2023-04-03T22:02:06;18.97;;;17.97;;
1957;SDS011;979;51.076;13.748;2023-04-03T22:05:02;17.43;;;16.90;;
1957;SDS011;979;51.076;13.748;2023-04-03T22:07:53;17.73;;;16.93;;
1957;SDS011;979;51.076;13.748;2023-04-03T22:10:50;16.37;;;15.77;;
1957;SDS011;979;51.076;13.748;2023-04-03T22:14:22;18.27;;;17.37;;
1957;SDS011;979;51.076;13.748;2023-04-03T22:17:59;17.70;;;17.03;;
1957;SDS011;979;51.076;13.748;2023-04-03T22:47:46;18.57;;;17.40;;
1957;SDS011;979;51.076;13.748;2023-04-03T22:50:51;17.97;;;17.23;;
1957;SDS011;979;51.076;13.748;2023-04-03T22:53:41;17.97;;;17.27;;
1957;SDS011;979;51.076;13.748;2023-04-03T22:56:19;17.90;;;17.00;;
1957;SDS011;979;51.076;13.748;2023-04-03T22:59:16;17.37;;;16.70;;